createdAt,value
2022-11-19T00:01:54.234Z,78.43
2022-11-19T00:04:17.987Z,78.27
2022-11-19T00:06:41.528Z,77.96
2022-11-19T00:09:05.781Z,77.69
2022-11-19T00:11:47.736Z,77.25
2022-11-19T00:14:13.443Z,77.43
2022-11-19T00:16:38.379Z,78.08
2022-11-19T00:19:01.989Z,79.66
2022-11-19T00:21:25.556Z,79.89
2022-11-19T00:23:49.114Z,80.39
2022-11-19T00:26:14.715Z,80.81
2022-11-19T00:28:39.176Z,80.62
2022-11-19T00:31:06.472Z,80.16
2022-11-19T00:33:32.713Z,80.48
2022-11-19T00:35:57.516Z,80.45
2022-11-19T00:38:21.111Z,81.07
2022-11-19T00:40:44.628Z,81.39
2022-11-19T00:43:30.950Z,80.37
2022-11-19T00:45:54.558Z,79.83
2022-11-19T00:48:18.126Z,79.24
2022-11-19T00:50:44.073Z,79.44
2022-11-19T00:53:07.597Z,79.81
2022-11-19T00:55:31.206Z,80.11
2022-11-19T00:57:54.744Z,80.56
2022-11-19T01:00:19.185Z,80.55
2022-11-19T01:02:42.689Z,79.54
2022-11-19T01:05:07.743Z,79.03
2022-11-19T01:07:32.759Z,79.10
2022-11-19T01:09:56.426Z,79.55
2022-11-19T01:12:19.922Z,78.95
2022-11-19T01:14:43.566Z,78.72
2022-11-19T01:17:07.075Z,78.49
2022-11-19T01:19:30.654Z,78.68
2022-11-19T01:21:54.239Z,79.53
2022-11-19T01:24:19.218Z,79.56
2022-11-19T01:26:45.824Z,79.22
2022-11-19T01:29:09.913Z,79.58
2022-11-19T01:31:33.443Z,78.61
2022-11-19T01:33:57.329Z,78.89
2022-11-19T01:36:23.517Z,79.28
2022-11-19T01:38:50.976Z,79.00
2022-11-19T01:41:15.975Z,78.72
2022-11-19T01:43:48.039Z,78.12
2022-11-19T01:46:12.291Z,77.96
2022-11-19T01:48:40.911Z,78.22
2022-11-19T01:51:09.293Z,78.71
2022-11-19T01:53:35.647Z,78.40
2022-11-19T01:56:04.001Z,78.01
2022-11-19T01:58:29.026Z,77.06
2022-11-19T02:00:52.851Z,77.80
2022-11-19T02:03:18.833Z,77.61
2022-11-19T02:05:44.481Z,77.53
2022-11-19T02:08:11.331Z,77.29
2022-11-19T02:10:45.333Z,77.27
2022-11-19T02:13:17.529Z,77.37
2022-11-19T02:15:51.914Z,77.53
2022-11-19T02:18:37.293Z,77.61
2022-11-19T02:21:18.817Z,78.37
2022-11-19T02:24:35.779Z,77.77
2022-11-19T02:27:43.734Z,78.89
2022-11-19T02:30:13.873Z,78.63
2022-11-19T02:32:46.732Z,78.63
2022-11-19T02:35:20.760Z,78.54
2022-11-19T02:37:51.005Z,78.31
2022-11-19T02:40:24.229Z,78.90
2022-11-19T02:42:56.606Z,78.69
2022-11-19T02:45:26.682Z,77.93
2022-11-19T02:47:55.333Z,78.65
2022-11-19T02:50:23.400Z,78.27
2022-11-19T02:52:48.279Z,78.39
2022-11-19T02:55:13.958Z,78.36
2022-11-19T02:57:38.701Z,78.33
2022-11-19T03:00:22.901Z,78.24
2022-11-19T03:03:10.413Z,78.86
2022-11-19T03:05:37.463Z,78.63
2022-11-19T03:08:01.259Z,78.90
2022-11-19T03:10:29.886Z,78.04
2022-11-19T03:12:56.687Z,78.21
2022-11-19T03:15:47.499Z,78.32
2022-11-19T03:18:18.382Z,78.87
2022-11-19T03:20:46.727Z,79.59
2022-11-19T03:23:17.616Z,78.96
2022-11-19T03:25:46.628Z,78.95
2022-11-19T03:28:15.063Z,78.99
2022-11-19T03:30:41.839Z,78.60
2022-11-19T03:33:08.957Z,78.84
2022-11-19T03:35:39.283Z,79.23
2022-11-19T03:38:08.796Z,79.71
2022-11-19T03:40:34.247Z,78.96
2022-11-19T03:42:59.332Z,78.69
2022-11-19T03:45:27.644Z,78.85
2022-11-19T03:47:53.303Z,78.49
2022-11-19T03:50:22.939Z,78.42
2022-11-19T03:52:47.997Z,79.46
2022-11-19T03:55:11.994Z,78.96
2022-11-19T03:57:35.534Z,79.51
2022-11-19T03:59:59.090Z,79.92
2022-11-19T04:02:23.001Z,79.31
2022-11-19T04:04:46.511Z,78.89
2022-11-19T04:07:13.777Z,79.43
2022-11-19T04:09:39.399Z,78.73
2022-11-19T04:12:03.189Z,79.45
2022-11-19T04:14:26.994Z,79.12
2022-11-19T04:16:50.652Z,80.01
2022-11-19T04:19:14.460Z,79.41
2022-11-19T04:21:38.078Z,78.65
2022-11-19T04:24:01.604Z,78.16
2022-11-19T04:26:26.589Z,78.82
2022-11-19T04:28:50.103Z,78.47
2022-11-19T04:31:17.841Z,79.30
2022-11-19T04:33:41.797Z,78.17
2022-11-19T04:36:06.032Z,78.42
2022-11-19T04:38:29.583Z,78.04
2022-11-19T04:40:53.194Z,78.71
2022-11-19T04:43:18.083Z,78.38
2022-11-19T04:45:41.685Z,79.14
2022-11-19T04:48:05.635Z,79.61
2022-11-19T04:50:29.210Z,78.34
2022-11-19T04:52:52.726Z,79.05
2022-11-19T04:55:16.573Z,79.29
2022-11-19T04:57:40.258Z,78.92
2022-11-19T05:00:07.029Z,78.07
2022-11-19T05:02:30.531Z,78.63
2022-11-19T05:04:54.195Z,79.23
2022-11-19T05:07:17.739Z,78.62
2022-11-19T05:09:41.415Z,78.31
2022-11-19T05:12:05.581Z,78.59
2022-11-19T05:14:30.663Z,78.82
2022-11-19T05:16:55.780Z,79.05
2022-11-19T05:19:19.490Z,79.13
2022-11-19T05:21:43.157Z,79.20
2022-11-19T05:24:07.727Z,78.89
2022-11-19T05:26:31.262Z,79.08
2022-11-19T05:28:54.877Z,79.86
2022-11-19T05:31:18.451Z,79.73
2022-11-19T05:33:43.492Z,79.83
2022-11-19T05:36:08.497Z,79.33
2022-11-19T05:38:32.068Z,79.42
2022-11-19T05:40:55.661Z,79.15
2022-11-19T05:43:19.262Z,78.91
2022-11-19T05:45:42.778Z,79.74
2022-11-19T05:48:07.181Z,78.93
2022-11-19T05:50:32.145Z,78.29
2022-11-19T05:53:00.106Z,78.61
2022-11-19T05:55:23.678Z,78.53
2022-11-19T05:57:47.282Z,78.08
2022-11-19T06:00:13.466Z,78.28
2022-11-19T06:02:37.394Z,78.38
2022-11-19T06:05:00.951Z,78.37
2022-11-19T06:07:26.147Z,78.58
2022-11-19T06:09:49.741Z,77.70
2022-11-19T06:12:13.349Z,77.96
2022-11-19T06:14:36.891Z,77.67
2022-11-19T06:17:01.822Z,77.21
2022-11-19T06:19:26.302Z,77.53
2022-11-19T06:21:50.544Z,79.23
2022-11-19T06:24:15.664Z,78.31
2022-11-19T06:26:39.385Z,78.15
2022-11-19T06:29:03.214Z,78.60
2022-11-19T06:31:26.998Z,79.57
2022-11-19T06:33:50.800Z,79.87
2022-11-19T06:36:14.463Z,80.39
2022-11-19T06:38:37.961Z,80.15
2022-11-19T06:41:03.118Z,80.12
2022-11-19T06:43:26.678Z,80.72
2022-11-19T06:45:50.434Z,80.32
2022-11-19T06:48:13.986Z,79.52
2022-11-19T06:50:37.609Z,80.76
2022-11-19T06:53:01.229Z,81.50
2022-11-19T06:55:25.242Z,81.08
2022-11-19T06:57:50.411Z,79.80
2022-11-19T07:00:15.979Z,80.02
2022-11-19T07:02:39.576Z,80.22
2022-11-19T07:05:03.260Z,81.10
2022-11-19T07:07:27.651Z,81.79
2022-11-19T07:09:51.357Z,80.95
2022-11-19T07:12:15.032Z,81.03
2022-11-19T07:14:40.212Z,81.52
2022-11-19T07:17:03.777Z,82.52
2022-11-19T07:19:27.409Z,83.37
2022-11-19T07:21:51.119Z,83.21
2022-11-19T07:24:19.160Z,83.88
2022-11-19T07:26:43.019Z,85.36
2022-11-19T07:29:09.113Z,86.23
2022-11-19T07:31:35.211Z,86.90
2022-11-19T07:33:59.067Z,87.46
2022-11-19T07:36:22.897Z,87.36
2022-11-19T07:38:46.660Z,86.96
2022-11-19T07:41:23.979Z,87.64
2022-11-19T07:43:47.627Z,86.70
2022-11-19T07:46:11.139Z,86.65
2022-11-19T07:48:36.075Z,86.97
2022-11-19T07:50:59.601Z,86.70
2022-11-19T07:53:23.175Z,86.46
2022-11-19T07:55:47.515Z,86.50
2022-11-19T07:58:11.070Z,86.20
2022-11-19T08:00:34.601Z,85.75
2022-11-19T08:02:58.180Z,86.04
2022-11-19T08:05:23.079Z,85.68
2022-11-19T08:07:46.633Z,84.86
2022-11-19T08:10:12.014Z,84.92
2022-11-19T08:12:35.606Z,84.52
2022-11-19T08:14:59.130Z,84.31
2022-11-19T08:17:39.976Z,84.07
2022-11-19T08:20:03.569Z,84.33
2022-11-19T08:22:29.237Z,83.85
2022-11-19T08:24:52.841Z,83.24
2022-11-19T08:27:17.295Z,83.37
2022-11-19T08:29:40.929Z,82.64
2022-11-19T08:32:04.593Z,82.79
2022-11-19T08:34:28.267Z,82.40
2022-11-19T08:36:51.929Z,82.59
2022-11-19T08:39:16.948Z,82.14
2022-11-19T08:41:57.788Z,81.85
2022-11-19T08:44:22.087Z,81.35
2022-11-19T08:46:45.978Z,82.17
2022-11-19T08:49:09.723Z,82.39
2022-11-19T08:51:33.537Z,80.75
2022-11-19T08:53:57.273Z,80.45
2022-11-19T08:56:22.743Z,80.97
2022-11-19T08:58:46.451Z,80.47
2022-11-19T09:01:11.994Z,79.31
2022-11-19T09:03:35.714Z,79.08
2022-11-19T09:06:00.885Z,79.33
2022-11-19T09:08:24.439Z,79.02
2022-11-19T09:10:48.046Z,78.69
2022-11-19T09:13:13.323Z,78.33
2022-11-19T09:15:37.481Z,79.18
2022-11-19T09:18:01.228Z,79.09
2022-11-19T09:20:25.397Z,78.64
2022-11-19T09:22:49.029Z,78.64
2022-11-19T09:25:13.113Z,78.53
2022-11-19T09:27:37.329Z,77.21
2022-11-19T09:30:02.281Z,77.26
2022-11-19T09:32:26.141Z,78.43
2022-11-19T09:34:50.336Z,78.36
2022-11-19T09:37:14.161Z,77.46
2022-11-19T09:39:38.311Z,78.46
2022-11-19T09:42:15.495Z,76.70
2022-11-19T09:45:13.645Z,76.60
2022-11-19T09:47:59.648Z,75.93
2022-11-19T09:50:25.617Z,75.76
2022-11-19T09:52:55.095Z,76.17
2022-11-19T09:55:22.779Z,76.45
2022-11-19T09:57:51.901Z,75.11
2022-11-19T10:00:20.892Z,75.44
2022-11-19T10:02:45.888Z,75.26
2022-11-19T10:05:15.498Z,74.55
2022-11-19T10:07:51.313Z,74.22
2022-11-19T10:10:34.143Z,74.14
2022-11-19T10:13:21.825Z,74.58
2022-11-19T10:16:04.545Z,73.75
2022-11-19T10:18:40.197Z,74.48
2022-11-19T10:21:12.685Z,74.89
2022-11-19T10:23:49.647Z,72.81
2022-11-19T10:26:17.408Z,73.86
2022-11-19T10:28:45.121Z,73.93
2022-11-19T10:31:15.730Z,73.58
2022-11-19T10:33:49.662Z,74.11
2022-11-19T10:36:20.912Z,75.17
2022-11-19T10:38:55.685Z,73.15
2022-11-19T10:41:33.910Z,73.58
2022-11-19T10:44:02.064Z,74.20
2022-11-19T10:46:27.512Z,73.36
2022-11-19T10:48:56.539Z,73.64
2022-11-19T10:51:24.498Z,72.99
2022-11-19T10:53:48.522Z,72.18
2022-11-19T10:56:16.064Z,72.42
2022-11-19T10:58:45.156Z,71.79
2022-11-19T11:01:18.621Z,71.57
2022-11-19T11:03:49.820Z,71.46
2022-11-19T11:06:15.007Z,70.36
2022-11-19T11:08:50.571Z,71.42
2022-11-19T11:11:14.683Z,70.81
2022-11-19T11:13:58.124Z,70.42
2022-11-19T11:16:25.109Z,70.70
2022-11-19T11:18:50.075Z,70.33
2022-11-19T11:21:32.676Z,70.58
2022-11-19T11:23:57.575Z,70.99
2022-11-19T11:26:24.835Z,70.81
2022-11-19T11:28:58.923Z,70.71
2022-11-19T11:31:41.392Z,70.29
2022-11-19T11:34:06.905Z,70.89
2022-11-19T11:36:33.939Z,72.30
2022-11-19T11:39:00.909Z,72.04
2022-11-19T11:44:21.468Z,71.00
2022-11-19T11:46:49.088Z,71.13
2022-11-19T11:49:30.119Z,71.21
2022-11-19T11:52:15.628Z,71.03
2022-11-19T11:54:54.377Z,70.75
2022-11-19T11:57:21.214Z,71.10
2022-11-19T11:59:45.076Z,70.94
2022-11-19T12:02:20.642Z,70.13
2022-11-19T12:04:44.249Z,70.87
2022-11-19T12:07:25.648Z,70.74
2022-11-19T12:09:59.484Z,71.38
2022-11-19T12:12:34.311Z,71.94
2022-11-19T12:15:05.530Z,71.06
2022-11-19T12:17:45.172Z,71.18
2022-11-19T12:20:22.607Z,71.52
2022-11-19T12:23:06.667Z,71.09
2022-11-19T12:25:36.565Z,71.45
2022-11-19T12:28:20.323Z,72.51
2022-11-19T12:30:57.455Z,72.19
2022-11-19T12:33:44.650Z,71.78
2022-11-19T12:36:17.612Z,72.10
2022-11-19T12:38:55.121Z,71.75
2022-11-19T12:42:01.250Z,71.91
2022-11-19T12:44:38.770Z,72.42
2022-11-19T12:47:18.515Z,71.77
2022-11-19T12:49:56.216Z,73.38
2022-11-19T12:53:08.322Z,74.61
2022-11-19T12:55:41.134Z,75.39
2022-11-19T12:58:19.968Z,76.37
2022-11-19T13:00:53.155Z,77.82
2022-11-19T13:03:22.221Z,78.43
2022-11-19T13:05:53.220Z,78.85
2022-11-19T13:08:25.447Z,78.88
2022-11-19T13:10:57.297Z,79.10
2022-11-19T13:13:29.459Z,80.37
2022-11-19T13:16:00.225Z,79.66
2022-11-19T13:18:25.362Z,79.78
2022-11-19T13:20:53.829Z,81.22
2022-11-19T13:23:23.924Z,80.74
2022-11-19T13:25:57.884Z,80.70
2022-11-19T13:28:27.998Z,81.05
2022-11-19T13:30:54.771Z,80.94
2022-11-19T13:33:26.362Z,80.48
2022-11-19T13:35:58.344Z,79.69
2022-11-19T13:38:32.453Z,82.89
2022-11-19T13:41:07.110Z,82.00
2022-11-19T13:43:48.076Z,81.44
2022-11-19T13:46:25.760Z,82.02
2022-11-19T13:48:56.764Z,82.43
2022-11-19T13:51:28.907Z,82.18
2022-11-19T13:53:52.611Z,83.42
2022-11-19T13:56:18.741Z,83.09
2022-11-19T13:58:48.115Z,83.13
2022-11-19T14:01:44.986Z,83.14
2022-11-19T14:04:30.747Z,84.38
2022-11-19T14:07:14.056Z,85.45
2022-11-19T14:09:44.838Z,84.25
2022-11-19T14:12:56.516Z,84.54
2022-11-19T14:16:10.487Z,85.34
2022-11-19T14:18:57.242Z,86.71
2022-11-19T14:22:10.764Z,86.42
2022-11-19T14:25:26.847Z,86.99
2022-11-19T14:27:51.877Z,86.48
2022-11-19T14:30:20.071Z,86.51
2022-11-19T14:32:48.092Z,87.43
2022-11-19T14:35:38.499Z,88.07
2022-11-19T14:38:44.297Z,88.09
2022-11-19T14:41:24.580Z,87.97
2022-11-19T14:44:33.488Z,87.67
2022-11-19T14:46:57.605Z,91.20
2022-11-19T14:49:38.046Z,90.60
2022-11-19T14:52:03.196Z,91.65
2022-11-19T14:54:39.584Z,92.04
2022-11-19T14:57:28.247Z,91.83
2022-11-19T14:59:59.409Z,90.49
2022-11-19T15:02:28.399Z,90.88
2022-11-19T15:05:05.473Z,90.29
2022-11-19T15:07:42.945Z,90.19
2022-11-19T15:10:31.433Z,91.44
2022-11-19T15:13:17.457Z,91.81
2022-11-19T15:15:45.395Z,91.47
2022-11-19T15:19:05.776Z,89.89
2022-11-19T15:22:19.189Z,90.46
2022-11-19T15:25:22.377Z,91.20
2022-11-19T15:28:04.767Z,92.08
2022-11-19T15:30:45.665Z,91.20
2022-11-19T15:33:49.850Z,90.90
2022-11-19T15:36:36.709Z,90.90
2022-11-19T15:39:10.757Z,90.58
2022-11-19T15:41:41.888Z,91.28
2022-11-19T15:44:10.339Z,90.84
2022-11-19T15:46:44.963Z,92.26
2022-11-19T15:49:17.345Z,91.65
2022-11-19T15:52:00.148Z,93.35
2022-11-19T15:54:29.733Z,92.48
2022-11-19T15:56:53.412Z,92.35
2022-11-19T15:59:20.285Z,92.97
2022-11-19T16:01:45.799Z,93.45
2022-11-19T16:04:16.427Z,93.29
2022-11-19T16:06:42.749Z,93.48
2022-11-19T16:09:06.568Z,93.54
2022-11-19T16:11:51.673Z,94.14
2022-11-19T16:14:41.088Z,94.71
2022-11-19T16:17:30.419Z,94.67
2022-11-19T16:20:07.716Z,93.72
2022-11-19T16:22:32.007Z,93.34
2022-11-19T16:25:05.751Z,92.90
2022-11-19T16:27:30.493Z,92.85
2022-11-19T16:29:54.118Z,92.85
2022-11-19T16:32:21.616Z,91.61
2022-11-19T16:34:45.316Z,92.37
2022-11-19T16:37:13.648Z,93.75
2022-11-19T16:39:38.631Z,93.73
2022-11-19T16:42:18.929Z,93.21
2022-11-19T16:44:43.334Z,94.47
2022-11-19T16:47:11.719Z,93.76
2022-11-19T16:49:56.057Z,93.71
2022-11-19T16:52:42.047Z,93.39
2022-11-19T16:55:09.789Z,93.64
2022-11-19T16:57:34.014Z,94.73
2022-11-19T17:00:00.519Z,93.88
2022-11-19T17:02:29.941Z,94.13
2022-11-19T17:04:55.056Z,94.34
2022-11-19T17:07:25.176Z,94.98
2022-11-19T17:09:48.829Z,93.91
2022-11-19T17:12:28.454Z,93.09
2022-11-19T17:14:55.826Z,93.62
2022-11-19T17:17:36.922Z,94.11
2022-11-19T17:20:06.379Z,93.52
2022-11-19T17:22:34.145Z,92.97
2022-11-19T17:24:58.849Z,93.80
2022-11-19T17:27:28.858Z,92.73
2022-11-19T17:29:56.578Z,92.73
2022-11-19T17:32:20.121Z,93.09
2022-11-19T17:34:47.001Z,92.94
2022-11-19T17:37:11.944Z,93.33
2022-11-19T17:39:35.519Z,92.50
2022-11-19T17:42:16.570Z,93.71
2022-11-19T17:44:40.766Z,93.97
2022-11-19T17:47:13.547Z,94.47
2022-11-19T17:49:45.777Z,93.76
2022-11-19T17:52:14.596Z,93.66
2022-11-19T17:54:38.409Z,93.67
2022-11-19T17:57:01.986Z,92.89
2022-11-19T17:59:25.672Z,93.33
2022-11-19T18:01:49.472Z,93.67
2022-11-19T18:04:14.152Z,92.88
2022-11-19T18:06:37.685Z,92.54
2022-11-19T18:09:02.817Z,92.27
2022-11-19T18:11:27.328Z,92.56
2022-11-19T18:13:57.230Z,92.30
2022-11-19T18:16:23.555Z,92.83
2022-11-19T18:18:47.250Z,91.77
2022-11-19T18:21:12.962Z,92.42
2022-11-19T18:23:36.514Z,92.39
2022-11-19T18:26:01.437Z,93.43
2022-11-19T18:28:25.004Z,92.88
2022-11-19T18:30:48.848Z,92.30
2022-11-19T18:33:13.105Z,90.75
2022-11-19T18:35:36.764Z,92.39
2022-11-19T18:38:00.836Z,92.06
2022-11-19T18:40:24.455Z,92.09
2022-11-19T18:43:06.999Z,92.25
2022-11-19T18:45:31.263Z,92.46
2022-11-19T18:47:54.812Z,92.71
2022-11-19T18:50:18.787Z,92.30
2022-11-19T18:52:42.325Z,91.94
2022-11-19T18:55:07.218Z,92.34
2022-11-19T18:57:30.753Z,91.98
2022-11-19T18:59:55.740Z,92.65
2022-11-19T19:02:19.247Z,91.64
2022-11-19T19:04:42.961Z,92.55
2022-11-19T19:07:07.906Z,93.37
2022-11-19T19:09:31.527Z,92.45
2022-11-19T19:12:13.703Z,92.01
2022-11-19T19:14:37.684Z,92.85
2022-11-19T19:17:03.169Z,92.89
2022-11-19T19:19:26.873Z,92.60
2022-11-19T19:21:50.505Z,93.01
2022-11-19T19:24:14.571Z,92.48
2022-11-19T19:26:38.217Z,92.48
2022-11-19T19:29:02.177Z,91.66
2022-11-19T19:31:26.441Z,93.08
2022-11-19T19:33:52.738Z,92.90
2022-11-19T19:36:17.588Z,91.95
2022-11-19T19:38:41.761Z,91.02
2022-11-19T19:41:07.048Z,90.73
2022-11-19T19:43:31.272Z,91.95
2022-11-19T19:45:54.866Z,90.97
2022-11-19T19:48:18.491Z,91.54
2022-11-19T19:50:51.893Z,92.15
2022-11-19T19:53:15.472Z,92.16
2022-11-19T19:55:38.981Z,92.38
2022-11-19T19:58:05.429Z,92.22
2022-11-19T20:00:29.034Z,90.92
2022-11-19T20:02:52.721Z,93.03
2022-11-19T20:05:16.583Z,93.39
2022-11-19T20:07:41.572Z,92.89
2022-11-19T20:10:06.013Z,93.36
2022-11-19T20:12:49.561Z,93.73
2022-11-19T20:15:13.376Z,94.60
2022-11-19T20:17:37.156Z,93.10
2022-11-19T20:20:00.765Z,93.21
2022-11-19T20:22:24.297Z,94.20
2022-11-19T20:24:49.243Z,95.17
2022-11-19T20:27:12.835Z,94.19
2022-11-19T20:29:36.395Z,93.86
2022-11-19T20:32:00.141Z,92.60
2022-11-19T20:34:23.792Z,93.87
2022-11-19T20:36:47.713Z,93.83
2022-11-19T20:39:12.601Z,94.02
2022-11-19T20:41:55.232Z,94.66
2022-11-19T20:44:22.784Z,94.38
2022-11-19T20:46:47.145Z,94.39
2022-11-19T20:49:15.569Z,92.91
2022-11-19T20:51:41.264Z,92.63
2022-11-19T20:54:05.705Z,94.38
2022-11-19T20:56:29.386Z,93.24
2022-11-19T20:58:54.313Z,92.95
2022-11-19T21:01:21.041Z,93.97
2022-11-19T21:03:44.680Z,94.25
2022-11-19T21:06:09.311Z,94.44
2022-11-19T21:08:33.438Z,94.85
2022-11-19T21:11:01.609Z,95.31
2022-11-19T21:13:25.215Z,95.82
2022-11-19T21:15:50.184Z,95.49
2022-11-19T21:18:13.726Z,96.26
2022-11-19T21:20:37.293Z,96.84
2022-11-19T21:23:00.832Z,96.14
2022-11-19T21:25:24.557Z,94.66
2022-11-19T21:27:48.202Z,93.92
2022-11-19T21:30:13.104Z,94.14
2022-11-19T21:32:38.252Z,94.74
2022-11-19T21:35:01.807Z,94.43
2022-11-19T21:37:25.396Z,94.99
2022-11-19T21:39:48.985Z,93.61
2022-11-19T21:42:12.518Z,93.36
2022-11-19T21:44:36.124Z,94.23
2022-11-19T21:46:59.670Z,94.30
2022-11-19T21:49:24.624Z,94.15
2022-11-19T21:51:49.123Z,93.33
2022-11-19T21:54:12.733Z,93.34
2022-11-19T21:56:38.834Z,92.96
2022-11-19T21:59:02.703Z,92.38
2022-11-19T22:01:26.241Z,93.71
2022-11-19T22:03:49.818Z,93.57
2022-11-19T22:06:14.883Z,94.47
2022-11-19T22:08:40.913Z,93.03
2022-11-19T22:11:25.390Z,93.15
2022-11-19T22:13:49.014Z,93.24
2022-11-19T22:16:12.584Z,94.41
2022-11-19T22:18:36.157Z,94.57
2022-11-19T22:21:03.406Z,93.75
2022-11-19T22:23:28.380Z,93.52
2022-11-19T22:25:51.886Z,94.12
2022-11-19T22:28:15.494Z,93.30
2022-11-19T22:30:38.992Z,94.20
2022-11-19T22:33:02.576Z,93.77
2022-11-19T22:35:26.099Z,94.26
2022-11-19T22:37:49.717Z,94.32
2022-11-19T22:40:15.563Z,93.90
2022-11-19T22:42:39.173Z,93.60
2022-11-19T22:45:02.670Z,95.13
2022-11-19T22:47:26.283Z,93.69
2022-11-19T22:49:49.815Z,94.23
2022-11-19T22:52:14.638Z,94.90
2022-11-19T22:54:41.637Z,93.97
2022-11-19T22:57:07.027Z,93.20
2022-11-19T22:59:30.547Z,92.56
2022-11-19T23:01:54.153Z,92.59
2022-11-19T23:04:17.714Z,93.13
2022-11-19T23:06:41.287Z,93.01
2022-11-19T23:09:06.351Z,92.45
2022-11-19T23:11:47.351Z,93.47
2022-11-19T23:14:14.665Z,93.85
2022-11-19T23:16:39.207Z,93.56
2022-11-19T23:19:02.820Z,92.08
2022-11-19T23:21:29.388Z,94.23
2022-11-19T23:23:53.832Z,92.39
2022-11-19T23:26:20.454Z,92.34
2022-11-19T23:28:44.796Z,92.57
2022-11-19T23:31:12.645Z,94.39
2022-11-19T23:33:36.492Z,93.76
2022-11-19T23:36:04.689Z,94.05
2022-11-19T23:38:28.256Z,93.98
2022-11-19T23:40:59.904Z,93.16
2022-11-19T23:43:23.844Z,93.10
2022-11-19T23:45:47.370Z,93.27
2022-11-19T23:48:12.383Z,91.84
2022-11-19T23:50:35.893Z,91.98
2022-11-19T23:52:59.493Z,91.70
2022-11-19T23:55:22.990Z,91.31
2022-11-19T23:57:46.670Z,90.96
